sensor_id;sensor_type;location;lat;lon;timestamp;temperature;humidity
11229;DHT22;5671;47.936;8.716;2023-04-07T00:00:52;4.20;77.20
11229;DHT22;5671;47.936;8.716;2023-04-07T00:03:19;4.20;77.00
11229;DHT22;5671;47.936;8.716;2023-04-07T00:05:46;4.10;75.40
11229;DHT22;5671;47.936;8.716;2023-04-07T00:08:14;4.20;76.10
11229;DHT22;5671;47.936;8.716;2023-04-07T00:10:41;4.20;76.70
11229;DHT22;5671;47.936;8.716;2023-04-07T00:13:08;4.10;76.60
11229;DHT22;5671;47.936;8.716;2023-04-07T00:15:34;4.10;76.80
11229;DHT22;5671;47.936;8.716;2023-04-07T00:18:01;4.10;74.70
11229;DHT22;5671;47.936;8.716;2023-04-07T00:20:28;4.10;75.10
11229;DHT22;5671;47.936;8.716;2023-04-07T00:22:55;4.10;73.30
11229;DHT22;5671;47.936;8.716;2023-04-07T00:25:23;4.10;74.10
11229;DHT22;5671;47.936;8.716;2023-04-07T00:27:50;4.10;72.70
11229;DHT22;5671;47.936;8.716;2023-04-07T00:30:17;4.10;73.10
11229;DHT22;5671;47.936;8.716;2023-04-07T00:32:44;4.10;75.50
11229;DHT22;5671;47.936;8.716;2023-04-07T00:35:10;4.10;74.50
11229;DHT22;5671;47.936;8.716;2023-04-07T00:37:37;4.10;74.90
11229;DHT22;5671;47.936;8.716;2023-04-07T00:40:05;4.00;75.20
11229;DHT22;5671;47.936;8.716;2023-04-07T00:42:33;4.00;73.90
11229;DHT22;5671;47.936;8.716;2023-04-07T00:45:00;4.00;73.00
11229;DHT22;5671;47.936;8.716;2023-04-07T00:47:27;4.00;76.60
11229;DHT22;5671;47.936;8.716;2023-04-07T00:49:54;4.00;77.00
11229;DHT22;5671;47.936;8.716;2023-04-07T00:52:21;4.00;77.60
11229;DHT22;5671;47.936;8.716;2023-04-07T00:54:53;3.90;75.80
11229;DHT22;5671;47.936;8.716;2023-04-07T00:57:20;4.00;75.40
11229;DHT22;5671;47.936;8.716;2023-04-07T00:59:48;3.90;77.00
11229;DHT22;5671;47.936;8.716;2023-04-07T01:02:19;3.90;76.50
11229;DHT22;5671;47.936;8.716;2023-04-07T01:04:54;3.90;76.80
11229;DHT22;5671;47.936;8.716;2023-04-07T01:07:27;3.90;75.50
11229;DHT22;5671;47.936;8.716;2023-04-07T01:09:59;3.90;74.40
11229;DHT22;5671;47.936;8.716;2023-04-07T01:12:34;3.90;74.30
11229;DHT22;5671;47.936;8.716;2023-04-07T01:15:08;3.90;74.20
11229;DHT22;5671;47.936;8.716;2023-04-07T01:17:36;3.80;76.60
11229;DHT22;5671;47.936;8.716;2023-04-07T01:20:06;3.80;76.20
11229;DHT22;5671;47.936;8.716;2023-04-07T01:22:38;3.80;76.90
11229;DHT22;5671;47.936;8.716;2023-04-07T01:25:21;3.80;74.60
11229;DHT22;5671;47.936;8.716;2023-04-07T01:27:55;3.80;73.50
11229;DHT22;5671;47.936;8.716;2023-04-07T01:30:27;3.80;75.20
11229;DHT22;5671;47.936;8.716;2023-04-07T01:32:55;3.80;76.10
11229;DHT22;5671;47.936;8.716;2023-04-07T01:35:24;3.80;75.60
11229;DHT22;5671;47.936;8.716;2023-04-07T01:37:53;3.80;76.00
11229;DHT22;5671;47.936;8.716;2023-04-07T01:40:21;3.70;77.80
11229;DHT22;5671;47.936;8.716;2023-04-07T01:42:49;3.70;75.20
11229;DHT22;5671;47.936;8.716;2023-04-07T01:45:17;3.70;74.50
11229;DHT22;5671;47.936;8.716;2023-04-07T01:47:46;3.70;73.80
11229;DHT22;5671;47.936;8.716;2023-04-07T01:50:14;3.70;75.00
11229;DHT22;5671;47.936;8.716;2023-04-07T01:52:42;3.70;76.50
11229;DHT22;5671;47.936;8.716;2023-04-07T01:55:09;3.60;76.20
11229;DHT22;5671;47.936;8.716;2023-04-07T01:57:36;3.60;76.60
11229;DHT22;5671;47.936;8.716;2023-04-07T02:00:04;3.60;77.90
11229;DHT22;5671;47.936;8.716;2023-04-07T02:02:32;3.60;75.70
11229;DHT22;5671;47.936;8.716;2023-04-07T02:05:05;3.60;74.40
11229;DHT22;5671;47.936;8.716;2023-04-07T02:07:38;3.60;76.60
11229;DHT22;5671;47.936;8.716;2023-04-07T02:10:09;3.60;77.40
11229;DHT22;5671;47.936;8.716;2023-04-07T02:12:38;3.60;77.20
11229;DHT22;5671;47.936;8.716;2023-04-07T02:15:08;3.50;75.00
11229;DHT22;5671;47.936;8.716;2023-04-07T02:17:38;3.50;77.20
11229;DHT22;5671;47.936;8.716;2023-04-07T02:20:08;3.50;76.50
11229;DHT22;5671;47.936;8.716;2023-04-07T02:22:36;3.50;75.10
11229;DHT22;5671;47.936;8.716;2023-04-07T02:25:23;3.50;78.60
11229;DHT22;5671;47.936;8.716;2023-04-07T02:27:51;3.40;77.40
11229;DHT22;5671;47.936;8.716;2023-04-07T02:30:18;3.40;77.20
11229;DHT22;5671;47.936;8.716;2023-04-07T02:32:45;3.40;78.00
11229;DHT22;5671;47.936;8.716;2023-04-07T02:35:14;3.40;78.20
11229;DHT22;5671;47.936;8.716;2023-04-07T02:37:41;3.40;75.80
11229;DHT22;5671;47.936;8.716;2023-04-07T02:40:08;3.40;75.20
11229;DHT22;5671;47.936;8.716;2023-04-07T02:42:35;3.40;76.40
11229;DHT22;5671;47.936;8.716;2023-04-07T02:45:02;3.30;77.50
11229;DHT22;5671;47.936;8.716;2023-04-07T02:47:29;3.30;75.60
11229;DHT22;5671;47.936;8.716;2023-04-07T02:49:56;3.30;77.30
11229;DHT22;5671;47.936;8.716;2023-04-07T02:52:24;3.30;77.20
11229;DHT22;5671;47.936;8.716;2023-04-07T02:54:51;3.30;77.80
11229;DHT22;5671;47.936;8.716;2023-04-07T02:57:18;3.30;77.40
11229;DHT22;5671;47.936;8.716;2023-04-07T02:59:45;3.30;76.40
11229;DHT22;5671;47.936;8.716;2023-04-07T03:02:11;3.30;76.60
11229;DHT22;5671;47.936;8.716;2023-04-07T03:04:38;3.30;76.70
11229;DHT22;5671;47.936;8.716;2023-04-07T03:07:05;3.30;76.70
11229;DHT22;5671;47.936;8.716;2023-04-07T03:09:33;3.30;77.20
11229;DHT22;5671;47.936;8.716;2023-04-07T03:12:01;3.30;77.10
11229;DHT22;5671;47.936;8.716;2023-04-07T03:14:27;3.30;76.90
11229;DHT22;5671;47.936;8.716;2023-04-07T03:16:54;3.30;76.10
11229;DHT22;5671;47.936;8.716;2023-04-07T03:19:21;3.30;76.90
11229;DHT22;5671;47.936;8.716;2023-04-07T03:21:48;3.20;76.60
11229;DHT22;5671;47.936;8.716;2023-04-07T03:24:15;3.20;76.50
11229;DHT22;5671;47.936;8.716;2023-04-07T03:26:44;3.20;77.40
11229;DHT22;5671;47.936;8.716;2023-04-07T03:29:11;3.20;76.70
11229;DHT22;5671;47.936;8.716;2023-04-07T03:31:37;3.20;76.10
11229;DHT22;5671;47.936;8.716;2023-04-07T03:34:04;3.10;76.10
11229;DHT22;5671;47.936;8.716;2023-04-07T03:36:31;3.10;77.40
11229;DHT22;5671;47.936;8.716;2023-04-07T03:38:58;3.00;78.90
11229;DHT22;5671;47.936;8.716;2023-04-07T03:41:25;3.00;78.30
11229;DHT22;5671;47.936;8.716;2023-04-07T03:43:53;3.00;76.30
11229;DHT22;5671;47.936;8.716;2023-04-07T03:46:20;3.00;75.30
11229;DHT22;5671;47.936;8.716;2023-04-07T03:48:46;2.90;75.10
11229;DHT22;5671;47.936;8.716;2023-04-07T03:51:13;2.90;76.70
11229;DHT22;5671;47.936;8.716;2023-04-07T03:53:40;2.90;77.60
11229;DHT22;5671;47.936;8.716;2023-04-07T03:56:07;2.90;78.20
11229;DHT22;5671;47.936;8.716;2023-04-07T03:58:34;2.90;77.30
11229;DHT22;5671;47.936;8.716;2023-04-07T04:01:02;2.90;76.30
11229;DHT22;5671;47.936;8.716;2023-04-07T04:03:29;2.90;76.80
11229;DHT22;5671;47.936;8.716;2023-04-07T04:05:56;2.80;77.30
11229;DHT22;5671;47.936;8.716;2023-04-07T04:08:23;2.80;79.90
11229;DHT22;5671;47.936;8.716;2023-04-07T04:10:49;2.70;80.00
11229;DHT22;5671;47.936;8.716;2023-04-07T04:13:16;2.70;79.10
11229;DHT22;5671;47.936;8.716;2023-04-07T04:15:43;2.70;78.40
11229;DHT22;5671;47.936;8.716;2023-04-07T04:18:11;2.70;79.90
11229;DHT22;5671;47.936;8.716;2023-04-07T04:20:38;2.70;81.10
11229;DHT22;5671;47.936;8.716;2023-04-07T04:23:05;2.70;79.50
11229;DHT22;5671;47.936;8.716;2023-04-07T04:25:32;2.70;80.50
11229;DHT22;5671;47.936;8.716;2023-04-07T04:27:59;2.60;81.00
11229;DHT22;5671;47.936;8.716;2023-04-07T04:30:25;2.60;79.80
11229;DHT22;5671;47.936;8.716;2023-04-07T04:32:52;2.60;78.30
11229;DHT22;5671;47.936;8.716;2023-04-07T04:35:21;2.60;77.90
11229;DHT22;5671;47.936;8.716;2023-04-07T04:37:48;2.50;77.00
11229;DHT22;5671;47.936;8.716;2023-04-07T04:40:15;2.50;76.80
11229;DHT22;5671;47.936;8.716;2023-04-07T04:42:42;2.40;77.20
11229;DHT22;5671;47.936;8.716;2023-04-07T04:45:09;2.40;76.90
11229;DHT22;5671;47.936;8.716;2023-04-07T04:47:36;2.40;78.20
11229;DHT22;5671;47.936;8.716;2023-04-07T04:50:04;2.30;77.30
11229;DHT22;5671;47.936;8.716;2023-04-07T04:52:32;2.30;76.80
11229;DHT22;5671;47.936;8.716;2023-04-07T04:55:00;2.20;76.70
11229;DHT22;5671;47.936;8.716;2023-04-07T04:57:27;2.20;79.30
11229;DHT22;5671;47.936;8.716;2023-04-07T04:59:53;2.10;79.70
11229;DHT22;5671;47.936;8.716;2023-04-07T05:02:20;2.10;79.40
11229;DHT22;5671;47.936;8.716;2023-04-07T05:04:47;2.10;80.30
11229;DHT22;5671;47.936;8.716;2023-04-07T05:07:14;2.00;79.40
11229;DHT22;5671;47.936;8.716;2023-04-07T05:09:42;2.00;80.80
11229;DHT22;5671;47.936;8.716;2023-04-07T05:12:09;2.00;80.30
11229;DHT22;5671;47.936;8.716;2023-04-07T05:14:38;1.90;80.90
11229;DHT22;5671;47.936;8.716;2023-04-07T05:17:05;1.90;80.10
11229;DHT22;5671;47.936;8.716;2023-04-07T05:19:32;1.90;80.20
11229;DHT22;5671;47.936;8.716;2023-04-07T05:21:59;1.90;79.30
11229;DHT22;5671;47.936;8.716;2023-04-07T05:24:27;1.90;79.10
11229;DHT22;5671;47.936;8.716;2023-04-07T05:26:55;1.90;81.50
11229;DHT22;5671;47.936;8.716;2023-04-07T05:29:22;1.90;81.20
11229;DHT22;5671;47.936;8.716;2023-04-07T05:31:49;1.90;79.00
11229;DHT22;5671;47.936;8.716;2023-04-07T05:34:15;1.90;77.90
11229;DHT22;5671;47.936;8.716;2023-04-07T05:36:42;2.00;79.40
11229;DHT22;5671;47.936;8.716;2023-04-07T05:39:09;2.00;80.80
11229;DHT22;5671;47.936;8.716;2023-04-07T05:41:36;2.00;80.60
11229;DHT22;5671;47.936;8.716;2023-04-07T05:44:04;2.10;81.00
11229;DHT22;5671;47.936;8.716;2023-04-07T05:46:31;2.10;80.80
11229;DHT22;5671;47.936;8.716;2023-04-07T05:48:58;2.20;79.60
11229;DHT22;5671;47.936;8.716;2023-04-07T05:51:25;2.20;79.00
11229;DHT22;5671;47.936;8.716;2023-04-07T05:53:52;2.30;79.10
11229;DHT22;5671;47.936;8.716;2023-04-07T05:56:19;2.30;79.00
11229;DHT22;5671;47.936;8.716;2023-04-07T05:58:46;2.40;78.50
11229;DHT22;5671;47.936;8.716;2023-04-07T06:01:14;2.40;78.20
11229;DHT22;5671;47.936;8.716;2023-04-07T06:03:41;2.50;77.90
11229;DHT22;5671;47.936;8.716;2023-04-07T06:06:09;2.50;78.00
11229;DHT22;5671;47.936;8.716;2023-04-07T06:08:36;2.60;78.10
11229;DHT22;5671;47.936;8.716;2023-04-07T06:11:03;2.60;78.60
11229;DHT22;5671;47.936;8.716;2023-04-07T06:13:32;2.70;77.80
11229;DHT22;5671;47.936;8.716;2023-04-07T06:15:59;2.70;77.90
11229;DHT22;5671;47.936;8.716;2023-04-07T06:18:27;2.70;77.00
11229;DHT22;5671;47.936;8.716;2023-04-07T06:20:53;2.80;77.30
11229;DHT22;5671;47.936;8.716;2023-04-07T06:23:20;2.80;77.50
11229;DHT22;5671;47.936;8.716;2023-04-07T06:25:47;2.90;77.70
11229;DHT22;5671;47.936;8.716;2023-04-07T06:28:16;2.90;77.30
11229;DHT22;5671;47.936;8.716;2023-04-07T06:30:43;3.00;77.00
11229;DHT22;5671;47.936;8.716;2023-04-07T06:33:10;3.10;77.00
11229;DHT22;5671;47.936;8.716;2023-04-07T06:35:39;3.10;77.00
11229;DHT22;5671;47.936;8.716;2023-04-07T06:38:07;3.20;77.60
11229;DHT22;5671;47.936;8.716;2023-04-07T06:40:35;3.20;76.40
11229;DHT22;5671;47.936;8.716;2023-04-07T06:43:02;3.30;76.70
11229;DHT22;5671;47.936;8.716;2023-04-07T06:45:29;3.40;76.30
11229;DHT22;5671;47.936;8.716;2023-04-07T06:47:56;3.50;76.20
11229;DHT22;5671;47.936;8.716;2023-04-07T06:50:23;3.60;76.90
11229;DHT22;5671;47.936;8.716;2023-04-07T06:52:51;3.70;76.40
11229;DHT22;5671;47.936;8.716;2023-04-07T06:55:18;3.80;75.60
11229;DHT22;5671;47.936;8.716;2023-04-07T06:57:45;3.90;75.10
11229;DHT22;5671;47.936;8.716;2023-04-07T07:00:12;4.00;74.70
11229;DHT22;5671;47.936;8.716;2023-04-07T07:02:39;4.10;75.40
11229;DHT22;5671;47.936;8.716;2023-04-07T07:05:06;4.10;75.20
11229;DHT22;5671;47.936;8.716;2023-04-07T07:07:33;4.20;75.10
11229;DHT22;5671;47.936;8.716;2023-04-07T07:10:01;4.20;74.90
11229;DHT22;5671;47.936;8.716;2023-04-07T07:12:28;4.30;74.50
11229;DHT22;5671;47.936;8.716;2023-04-07T07:14:55;4.40;73.80
11229;DHT22;5671;47.936;8.716;2023-04-07T07:17:22;4.40;73.20
11229;DHT22;5671;47.936;8.716;2023-04-07T07:19:49;4.50;73.10
11229;DHT22;5671;47.936;8.716;2023-04-07T07:22:15;4.60;73.30
11229;DHT22;5671;47.936;8.716;2023-04-07T07:24:42;4.70;73.00
11229;DHT22;5671;47.936;8.716;2023-04-07T07:27:10;4.90;73.10
11229;DHT22;5671;47.936;8.716;2023-04-07T07:29:37;5.00;72.30
11229;DHT22;5671;47.936;8.716;2023-04-07T07:32:04;5.20;72.10
11229;DHT22;5671;47.936;8.716;2023-04-07T07:34:32;5.40;71.60
11229;DHT22;5671;47.936;8.716;2023-04-07T07:36:58;5.60;69.90
11229;DHT22;5671;47.936;8.716;2023-04-07T07:39:25;5.60;69.90
11229;DHT22;5671;47.936;8.716;2023-04-07T07:41:52;5.70;68.90
11229;DHT22;5671;47.936;8.716;2023-04-07T07:44:21;6.00;69.00
11229;DHT22;5671;47.936;8.716;2023-04-07T07:46:48;6.20;68.20
11229;DHT22;5671;47.936;8.716;2023-04-07T07:49:15;6.40;68.80
11229;DHT22;5671;47.936;8.716;2023-04-07T07:51:42;6.70;68.10
11229;DHT22;5671;47.936;8.716;2023-04-07T07:54:10;7.00;67.30
11229;DHT22;5671;47.936;8.716;2023-04-07T07:56:37;7.30;66.60
11229;DHT22;5671;47.936;8.716;2023-04-07T07:59:04;7.60;64.90
11229;DHT22;5671;47.936;8.716;2023-04-07T08:01:33;7.90;63.60
11229;DHT22;5671;47.936;8.716;2023-04-07T08:04:00;8.10;63.10
11229;DHT22;5671;47.936;8.716;2023-04-07T08:06:26;8.50;63.20
11229;DHT22;5671;47.936;8.716;2023-04-07T08:08:56;8.80;61.90
11229;DHT22;5671;47.936;8.716;2023-04-07T08:11:23;9.00;60.50
11229;DHT22;5671;47.936;8.716;2023-04-07T08:13:50;9.20;59.90
11229;DHT22;5671;47.936;8.716;2023-04-07T08:16:18;9.30;59.30
11229;DHT22;5671;47.936;8.716;2023-04-07T08:18:46;9.40;58.30
11229;DHT22;5671;47.936;8.716;2023-04-07T08:21:13;9.30;59.10
11229;DHT22;5671;47.936;8.716;2023-04-07T08:23:40;9.40;59.00
11229;DHT22;5671;47.936;8.716;2023-04-07T08:26:07;9.30;58.70
11229;DHT22;5671;47.936;8.716;2023-04-07T08:28:34;9.30;58.00
11229;DHT22;5671;47.936;8.716;2023-04-07T08:31:00;9.30;58.50
11229;DHT22;5671;47.936;8.716;2023-04-07T08:33:27;9.30;57.60
11229;DHT22;5671;47.936;8.716;2023-04-07T08:35:55;9.30;57.60
11229;DHT22;5671;47.936;8.716;2023-04-07T08:38:22;9.30;58.50
11229;DHT22;5671;47.936;8.716;2023-04-07T08:40:55;9.30;57.90
11229;DHT22;5671;47.936;8.716;2023-04-07T08:43:25;9.20;58.00
11229;DHT22;5671;47.936;8.716;2023-04-07T08:45:56;9.20;57.00
11229;DHT22;5671;47.936;8.716;2023-04-07T08:48:23;9.10;58.60
11229;DHT22;5671;47.936;8.716;2023-04-07T08:50:54;9.10;57.50
11229;DHT22;5671;47.936;8.716;2023-04-07T08:53:25;9.10;57.50
11229;DHT22;5671;47.936;8.716;2023-04-07T08:55:55;9.10;58.60
11229;DHT22;5671;47.936;8.716;2023-04-07T08:58:21;9.00;58.00
11229;DHT22;5671;47.936;8.716;2023-04-07T09:00:49;9.00;57.70
11229;DHT22;5671;47.936;8.716;2023-04-07T09:03:17;8.90;57.60
11229;DHT22;5671;47.936;8.716;2023-04-07T09:05:44;8.80;57.50
11229;DHT22;5671;47.936;8.716;2023-04-07T09:08:13;8.70;58.50
11229;DHT22;5671;47.936;8.716;2023-04-07T09:10:39;8.70;58.40
11229;DHT22;5671;47.936;8.716;2023-04-07T09:13:06;8.70;59.50
11229;DHT22;5671;47.936;8.716;2023-04-07T09:15:33;8.50;60.20
11229;DHT22;5671;47.936;8.716;2023-04-07T09:18:00;8.50;60.00
11229;DHT22;5671;47.936;8.716;2023-04-07T09:20:28;8.50;60.40
11229;DHT22;5671;47.936;8.716;2023-04-07T09:23:26;8.50;60.30
11229;DHT22;5671;47.936;8.716;2023-04-07T09:25:54;8.50;59.80
11229;DHT22;5671;47.936;8.716;2023-04-07T09:28:24;8.50;60.00
11229;DHT22;5671;47.936;8.716;2023-04-07T09:30:52;8.50;60.30
11229;DHT22;5671;47.936;8.716;2023-04-07T09:33:25;8.50;60.30
11229;DHT22;5671;47.936;8.716;2023-04-07T09:35:53;8.50;60.80
11229;DHT22;5671;47.936;8.716;2023-04-07T09:38:20;8.40;59.60
11229;DHT22;5671;47.936;8.716;2023-04-07T09:40:48;8.40;59.90
11229;DHT22;5671;47.936;8.716;2023-04-07T09:43:17;8.40;60.30
11229;DHT22;5671;47.936;8.716;2023-04-07T09:45:44;8.40;61.30
11229;DHT22;5671;47.936;8.716;2023-04-07T09:48:18;8.40;62.10
11229;DHT22;5671;47.936;8.716;2023-04-07T09:50:46;8.40;61.40
11229;DHT22;5671;47.936;8.716;2023-04-07T09:53:15;8.40;61.60
11229;DHT22;5671;47.936;8.716;2023-04-07T09:55:44;8.40;61.40
11229;DHT22;5671;47.936;8.716;2023-04-07T09:58:13;8.40;61.30
11229;DHT22;5671;47.936;8.716;2023-04-07T10:00:41;8.50;62.20
11229;DHT22;5671;47.936;8.716;2023-04-07T10:03:08;8.50;60.30
11229;DHT22;5671;47.936;8.716;2023-04-07T10:05:35;8.60;60.50
11229;DHT22;5671;47.936;8.716;2023-04-07T10:08:05;8.70;60.90
11229;DHT22;5671;47.936;8.716;2023-04-07T10:10:32;8.80;60.30
11229;DHT22;5671;47.936;8.716;2023-04-07T10:13:03;8.90;60.70
11229;DHT22;5671;47.936;8.716;2023-04-07T10:15:32;9.00;59.40
11229;DHT22;5671;47.936;8.716;2023-04-07T10:17:59;9.10;60.00
11229;DHT22;5671;47.936;8.716;2023-04-07T10:20:27;9.10;58.30
11229;DHT22;5671;47.936;8.716;2023-04-07T10:23:08;9.20;59.40
11229;DHT22;5671;47.936;8.716;2023-04-07T10:25:39;9.40;60.30
11229;DHT22;5671;47.936;8.716;2023-04-07T10:28:07;9.40;58.90
11229;DHT22;5671;47.936;8.716;2023-04-07T10:30:38;9.60;59.00
11229;DHT22;5671;47.936;8.716;2023-04-07T10:33:05;9.70;59.20
11229;DHT22;5671;47.936;8.716;2023-04-07T10:36:02;9.80;58.40
11229;DHT22;5671;47.936;8.716;2023-04-07T10:38:30;9.90;57.40
11229;DHT22;5671;47.936;8.716;2023-04-07T10:40:57;10.00;56.90
11229;DHT22;5671;47.936;8.716;2023-04-07T10:43:36;10.00;56.40
11229;DHT22;5671;47.936;8.716;2023-04-07T10:46:05;10.10;56.70
11229;DHT22;5671;47.936;8.716;2023-04-07T10:48:32;10.10;56.80
11229;DHT22;5671;47.936;8.716;2023-04-07T10:51:13;10.10;56.40
11229;DHT22;5671;47.936;8.716;2023-04-07T10:57:11;10.00;56.10
11229;DHT22;5671;47.936;8.716;2023-04-07T10:59:40;10.00;56.30
11229;DHT22;5671;47.936;8.716;2023-04-07T11:02:38;9.90;56.10
11229;DHT22;5671;47.936;8.716;2023-04-07T11:05:05;9.80;57.30
11229;DHT22;5671;47.936;8.716;2023-04-07T11:07:43;9.80;56.80
11229;DHT22;5671;47.936;8.716;2023-04-07T11:10:11;9.60;57.10
11229;DHT22;5671;47.936;8.716;2023-04-07T11:12:40;9.50;57.20
11229;DHT22;5671;47.936;8.716;2023-04-07T11:15:17;9.50;58.30
11229;DHT22;5671;47.936;8.716;2023-04-07T11:17:45;9.50;58.10
11229;DHT22;5671;47.936;8.716;2023-04-07T11:20:12;9.50;58.50
11229;DHT22;5671;47.936;8.716;2023-04-07T11:22:39;9.50;58.50
11229;DHT22;5671;47.936;8.716;2023-04-07T11:25:19;9.40;58.00
11229;DHT22;5671;47.936;8.716;2023-04-07T11:27:47;9.40;58.00
11229;DHT22;5671;47.936;8.716;2023-04-07T11:30:15;9.40;59.00
11229;DHT22;5671;47.936;8.716;2023-04-07T11:32:48;9.40;60.70
11229;DHT22;5671;47.936;8.716;2023-04-07T11:35:15;9.40;61.20
11229;DHT22;5671;47.936;8.716;2023-04-07T11:37:42;9.30;62.80
11229;DHT22;5671;47.936;8.716;2023-04-07T11:40:10;9.10;62.30
11229;DHT22;5671;47.936;8.716;2023-04-07T11:42:39;8.90;62.30
11229;DHT22;5671;47.936;8.716;2023-04-07T11:45:15;8.80;65.20
11229;DHT22;5671;47.936;8.716;2023-04-07T11:47:42;8.70;65.60
11229;DHT22;5671;47.936;8.716;2023-04-07T11:50:11;8.40;66.50
11229;DHT22;5671;47.936;8.716;2023-04-07T11:52:41;8.30;66.90
11229;DHT22;5671;47.936;8.716;2023-04-07T11:55:16;8.00;67.80
11229;DHT22;5671;47.936;8.716;2023-04-07T11:57:44;7.90;69.30
11229;DHT22;5671;47.936;8.716;2023-04-07T12:00:12;7.70;71.20
11229;DHT22;5671;47.936;8.716;2023-04-07T12:02:40;7.50;68.00
11229;DHT22;5671;47.936;8.716;2023-04-07T12:05:08;7.30;68.10
11229;DHT22;5671;47.936;8.716;2023-04-07T12:07:37;7.20;70.20
11229;DHT22;5671;47.936;8.716;2023-04-07T12:10:19;6.90;69.40
11229;DHT22;5671;47.936;8.716;2023-04-07T12:12:46;6.80;69.70
11229;DHT22;5671;47.936;8.716;2023-04-07T12:15:14;6.70;72.10
11229;DHT22;5671;47.936;8.716;2023-04-07T12:17:44;6.50;72.40
11229;DHT22;5671;47.936;8.716;2023-04-07T12:20:12;6.20;72.50
11229;DHT22;5671;47.936;8.716;2023-04-07T12:22:40;6.20;73.20
11229;DHT22;5671;47.936;8.716;2023-04-07T12:25:08;6.00;73.70
11229;DHT22;5671;47.936;8.716;2023-04-07T12:27:34;5.90;75.20
11229;DHT22;5671;47.936;8.716;2023-04-07T12:30:01;5.70;75.30
11229;DHT22;5671;47.936;8.716;2023-04-07T12:32:28;5.60;75.80
11229;DHT22;5671;47.936;8.716;2023-04-07T12:34:57;5.50;77.00
11229;DHT22;5671;47.936;8.716;2023-04-07T12:37:24;5.40;77.80
11229;DHT22;5671;47.936;8.716;2023-04-07T12:39:52;5.30;78.50
11229;DHT22;5671;47.936;8.716;2023-04-07T12:42:19;5.30;77.70
11229;DHT22;5671;47.936;8.716;2023-04-07T12:44:46;5.20;79.50
11229;DHT22;5671;47.936;8.716;2023-04-07T12:47:12;5.20;79.30
11229;DHT22;5671;47.936;8.716;2023-04-07T12:49:40;5.20;80.50
11229;DHT22;5671;47.936;8.716;2023-04-07T12:52:07;5.10;81.30
11229;DHT22;5671;47.936;8.716;2023-04-07T12:54:33;5.10;81.90
11229;DHT22;5671;47.936;8.716;2023-04-07T12:57:02;5.10;82.00
11229;DHT22;5671;47.936;8.716;2023-04-07T12:59:29;5.00;82.10
11229;DHT22;5671;47.936;8.716;2023-04-07T13:01:55;5.00;82.70
11229;DHT22;5671;47.936;8.716;2023-04-07T13:04:22;5.00;83.00
11229;DHT22;5671;47.936;8.716;2023-04-07T13:06:51;4.90;83.00
11229;DHT22;5671;47.936;8.716;2023-04-07T13:09:18;5.00;83.20
11229;DHT22;5671;47.936;8.716;2023-04-07T13:11:45;5.00;82.90
11229;DHT22;5671;47.936;8.716;2023-04-07T13:14:13;5.00;82.30
11229;DHT22;5671;47.936;8.716;2023-04-07T13:16:40;5.00;82.60
11229;DHT22;5671;47.936;8.716;2023-04-07T13:19:07;5.00;82.70
11229;DHT22;5671;47.936;8.716;2023-04-07T13:21:34;5.10;82.20
11229;DHT22;5671;47.936;8.716;2023-04-07T13:24:00;5.00;82.20
11229;DHT22;5671;47.936;8.716;2023-04-07T13:26:27;5.10;83.10
11229;DHT22;5671;47.936;8.716;2023-04-07T13:28:54;5.10;83.00
11229;DHT22;5671;47.936;8.716;2023-04-07T13:31:22;5.10;83.00
11229;DHT22;5671;47.936;8.716;2023-04-07T13:33:49;5.00;83.30
11229;DHT22;5671;47.936;8.716;2023-04-07T13:36:16;5.00;83.70
11229;DHT22;5671;47.936;8.716;2023-04-07T13:38:42;5.00;83.50
11229;DHT22;5671;47.936;8.716;2023-04-07T13:41:09;5.00;82.40
11229;DHT22;5671;47.936;8.716;2023-04-07T13:43:36;5.00;83.40
11229;DHT22;5671;47.936;8.716;2023-04-07T13:46:03;5.00;83.00
11229;DHT22;5671;47.936;8.716;2023-04-07T13:48:31;5.00;81.90
11229;DHT22;5671;47.936;8.716;2023-04-07T13:50:58;5.00;82.20
11229;DHT22;5671;47.936;8.716;2023-04-07T13:53:25;5.00;82.20
11229;DHT22;5671;47.936;8.716;2023-04-07T13:55:52;5.00;82.70
11229;DHT22;5671;47.936;8.716;2023-04-07T13:58:19;5.00;82.70
11229;DHT22;5671;47.936;8.716;2023-04-07T14:00:45;5.10;83.00
11229;DHT22;5671;47.936;8.716;2023-04-07T14:03:13;5.00;82.80
11229;DHT22;5671;47.936;8.716;2023-04-07T14:05:42;5.00;81.70
11229;DHT22;5671;47.936;8.716;2023-04-07T14:08:08;5.00;82.30
11229;DHT22;5671;47.936;8.716;2023-04-07T14:10:35;5.00;82.10
11229;DHT22;5671;47.936;8.716;2023-04-07T14:13:02;5.00;81.50
11229;DHT22;5671;47.936;8.716;2023-04-07T14:15:29;5.00;81.50
11229;DHT22;5671;47.936;8.716;2023-04-07T14:17:56;5.00;82.30
11229;DHT22;5671;47.936;8.716;2023-04-07T14:20:23;5.00;82.60
11229;DHT22;5671;47.936;8.716;2023-04-07T14:22:51;5.10;82.20
11229;DHT22;5671;47.936;8.716;2023-04-07T14:25:18;5.10;82.40
11229;DHT22;5671;47.936;8.716;2023-04-07T14:27:45;5.00;83.10
11229;DHT22;5671;47.936;8.716;2023-04-07T14:30:12;5.10;83.00
11229;DHT22;5671;47.936;8.716;2023-04-07T14:32:38;5.10;83.30
11229;DHT22;5671;47.936;8.716;2023-04-07T14:35:06;5.10;83.10
11229;DHT22;5671;47.936;8.716;2023-04-07T14:37:33;5.10;83.20
11229;DHT22;5671;47.936;8.716;2023-04-07T14:40:02;5.10;82.80
11229;DHT22;5671;47.936;8.716;2023-04-07T14:42:29;5.20;82.90
11229;DHT22;5671;47.936;8.716;2023-04-07T14:44:57;5.20;82.80
11229;DHT22;5671;47.936;8.716;2023-04-07T14:47:24;5.10;82.80
11229;DHT22;5671;47.936;8.716;2023-04-07T14:49:52;5.10;82.40
11229;DHT22;5671;47.936;8.716;2023-04-07T14:52:19;5.20;82.10
11229;DHT22;5671;47.936;8.716;2023-04-07T14:54:46;5.20;82.20
11229;DHT22;5671;47.936;8.716;2023-04-07T14:57:14;5.10;82.80
11229;DHT22;5671;47.936;8.716;2023-04-07T14:59:42;5.10;83.20
11229;DHT22;5671;47.936;8.716;2023-04-07T15:02:09;5.10;82.80
11229;DHT22;5671;47.936;8.716;2023-04-07T15:04:36;5.10;81.90
11229;DHT22;5671;47.936;8.716;2023-04-07T15:07:03;5.10;81.70
11229;DHT22;5671;47.936;8.716;2023-04-07T15:09:30;5.10;81.60
11229;DHT22;5671;47.936;8.716;2023-04-07T15:11:57;5.10;81.50
11229;DHT22;5671;47.936;8.716;2023-04-07T15:14:26;5.10;81.60
11229;DHT22;5671;47.936;8.716;2023-04-07T15:16:53;5.10;81.80
11229;DHT22;5671;47.936;8.716;2023-04-07T15:19:19;5.00;82.10
11229;DHT22;5671;47.936;8.716;2023-04-07T15:21:46;5.00;83.00
11229;DHT22;5671;47.936;8.716;2023-04-07T15:24:13;5.00;82.90
11229;DHT22;5671;47.936;8.716;2023-04-07T15:26:40;5.00;83.20
11229;DHT22;5671;47.936;8.716;2023-04-07T15:29:07;4.90;82.30
11229;DHT22;5671;47.936;8.716;2023-04-07T15:31:35;4.80;82.60
11229;DHT22;5671;47.936;8.716;2023-04-07T15:34:02;4.80;82.80
11229;DHT22;5671;47.936;8.716;2023-04-07T15:36:28;4.80;83.00
11229;DHT22;5671;47.936;8.716;2023-04-07T15:38:55;4.80;83.00
11229;DHT22;5671;47.936;8.716;2023-04-07T15:41:22;4.70;82.40
11229;DHT22;5671;47.936;8.716;2023-04-07T15:43:50;4.70;82.70
11229;DHT22;5671;47.936;8.716;2023-04-07T15:46:17;4.70;82.10
11229;DHT22;5671;47.936;8.716;2023-04-07T15:48:45;4.70;82.60
11229;DHT22;5671;47.936;8.716;2023-04-07T15:51:12;4.70;82.60
11229;DHT22;5671;47.936;8.716;2023-04-07T15:53:39;4.70;82.60
11229;DHT22;5671;47.936;8.716;2023-04-07T15:56:06;4.70;82.70
11229;DHT22;5671;47.936;8.716;2023-04-07T15:58:33;4.70;82.80
11229;DHT22;5671;47.936;8.716;2023-04-07T16:01:00;4.70;83.10
11229;DHT22;5671;47.936;8.716;2023-04-07T16:03:27;4.70;83.20
11229;DHT22;5671;47.936;8.716;2023-04-07T16:05:55;4.70;83.20
11229;DHT22;5671;47.936;8.716;2023-04-07T16:08:22;4.70;83.40
11229;DHT22;5671;47.936;8.716;2023-04-07T16:10:48;4.70;83.80